header
chart

Reported and forecast weather at local airports

Important: not to be used for flight planning purposes.


EGBB METAR fetched   Tuesday 12th Dec @ 20:05:35
EGBB 121950Z 15007KT 8000 -RADZ SCT025 BKN030 01/01 Q1005

EGCC METAR fetched   Tuesday 12th Dec @ 20:05:32
EGCC 121950Z AUTO 17007KT 110V220 9999 -RA SCT027 BKN038 03/01 Q1002

EGGP METAR fetched   Tuesday 12th Dec @ 20:05:33
EGGP 121950Z 16011KT 8000 -RA BKN025 04/03 Q1001

EGNH METAR fetched   Tuesday 12th Dec @ 20:05:34
EGNH 121950Z 15015KT 6000 -RADZ SCT006 BKN014 03/02 Q1000

EGNM METAR fetched   Tuesday 12th Dec @ 20:05:34
EGNM 121950Z 20009KT 160V230 9999 -RA FEW012 BKN022 02/01 Q1001

EGOV METAR fetched   Tuesday 12th Dec @ 20:05:36
EGOV 121950Z 25019KT 9999 -RA FEW005 BKN022 BKN060 09/06 Q1000 RERA REDZ WHT


EGBB TAF fetched   Tuesday 12th Dec @ 20:05:36
TAF EGBB 121704Z 1218/1318 21003KT 9999 FEW035 TEMPO 1218/1220 6000 -RA BKN007 PROB30 TEMPO 1218/1224 22015G25KT BECMG 1220/1223 21013KT 3000 RADZ BR BKN003 PROB30 TEMPO 1222/1305 0300 FZFG BKN001 BECMG 1305/1307 9999 NSW SCT030 TEMPO 1308/1315 7000 SHRA BKN009 PROB30 TEMPO 1310/1312 23016G26KT 4000 +SHRA BKN004 BECMG 1312/1315 27012KT BECMG 1315/1318 21014KT

EGCC TAF fetched   Tuesday 12th Dec @ 20:05:32
TAF EGCC 121704Z 1218/1324 19013KT 9999 FEW045 TEMPO 1218/1224 22015G25KT 6000 RA BKN008 PROB30 TEMPO 1218/1224 4000 +RA RADZ BKN004 TEMPO 1300/1307 BKN003 PROB30 1303/1305 0300 FZFG VV/// BECMG 1307/1310 25010KT TEMPO 1307/1315 7000 SHRA BKN010 PROB30 TEMPO 1310/1312 28018G28KT 4000 +SHRA BKN008 TEMPO 1317/1324 27018G28KT 4000 SHRASN BKN014CB PROB30 TEMPO 1317/1324 1400 +SHRASN SHSN BKN002

EGGP TAF fetched   Tuesday 12th Dec @ 20:05:33
TAF EGGP 121704Z 1218/1318 20013KT 9999 FEW045 TEMPO 1218/1224 22015G25KT 6000 RA BKN008 PROB30 TEMPO 1218/1224 4000 +RA RADZ BKN004 TEMPO 1300/1307 BKN003 BECMG 1307/1310 26012KT TEMPO 1307/1315 7000 SHRA BKN010 PROB30 TEMPO 1310/1312 28018G28KT 4000 +SHRA BKN008 TEMPO 1317/1318 7000 SHRA PROB30 TEMPO 1317/1318 27020G30KT 4000 +SHRA BKN014CB

EGNM TAF fetched   Tuesday 12th Dec @ 06:37:27
TAF TAF EGNM 120500Z 1206/1306 28007KT 9999 FEW020 PROB30 1206/1210 6000 BECMG 1215/1218 21010KT BECMG 1218/1221 22015G25KT -RA BKN012 TEMPO 1219/1222 6000 RA BKN006 PROB30 TEMPO 1219/1222 2000 RASN BKN001 BECMG 1222/1301 24010KT NSW SCT012 PROB30 TEMPO 1222/1224 BKN003

EGOV TAF fetched   Tuesday 12th Dec @ 20:05:37
TAF TAF EGOV 190525Z 1906/1918 04008KT CAVOK PROB30 TEMPO 1906/1912 6000 SHRA TEMPO 1912/1915 4000 +SHRA SCT020 BKN030CB PROB30 TEMPO 1913/1915 VRBG20G30KT 2500 TSGR BKN012

Every effort is made to ensure that this information is free from errors but as it is provided by a third party the accuracy of the reports cannot be guaranteed.